Terminal Aerodrome Forecast
Issued by NWS

Home | Current Version | Previous Version | Text Only | Print | Product List | Glossary On
Versions: 1 2 3 4 5 6 7 8 9 10 11 12
000
FTUS42 KTBW 012338
TAFRSW
TAF
KRSW 012338Z 0200/0224 27007KT P6SM FEW045
     FM020300 VRB03KT P6SM FEW200
     FM021100 01004KT 5SM BR SCT200
     FM021300 05004KT P6SM FEW035 SCT200
     FM021500 13006KT P6SM SCT040 SCT200
     FM021700 23007KT P6SM SCT045=

USA.gov is the U.S. government's official web portal to all federal, state and local government web resources and services.